createdAt,value
2023-03-18T00:00:23.637Z,6.74
2023-03-18T00:01:23.628Z,6.79
2023-03-18T00:02:23.665Z,6.84
2023-03-18T00:03:23.620Z,6.95
2023-03-18T00:04:23.634Z,6.87
2023-03-18T00:05:23.594Z,6.87
2023-03-18T00:06:23.587Z,6.84
2023-03-18T00:07:23.581Z,6.79
2023-03-18T00:08:23.569Z,6.84
2023-03-18T00:09:23.582Z,6.92
2023-03-18T00:10:23.558Z,6.84
2023-03-18T00:11:23.549Z,7.00
2023-03-18T00:12:23.532Z,6.79
2023-03-18T00:13:23.525Z,6.84
2023-03-18T00:14:23.552Z,6.87
2023-03-18T00:15:23.551Z,6.81
2023-03-18T00:16:23.587Z,6.75
2023-03-18T00:17:23.616Z,6.79
2023-03-18T00:18:23.497Z,6.81
2023-03-18T00:19:23.506Z,6.85
2023-03-18T00:20:23.480Z,6.74
2023-03-18T00:21:23.456Z,6.79
2023-03-18T00:22:24.469Z,6.78
2023-03-18T00:23:23.464Z,6.82
2023-03-18T00:24:23.549Z,6.78
2023-03-18T00:25:23.461Z,6.82
2023-03-18T00:26:23.437Z,6.81
2023-03-18T00:27:23.430Z,6.81
2023-03-18T00:28:23.411Z,6.77
2023-03-18T00:29:23.440Z,6.77
2023-03-18T00:30:23.410Z,6.79
2023-03-18T00:31:23.541Z,6.78
2023-03-18T00:32:23.390Z,6.89
2023-03-18T00:33:23.378Z,6.84
2023-03-18T00:34:23.394Z,6.88
2023-03-18T00:35:23.379Z,6.81
2023-03-18T00:36:23.366Z,6.87
2023-03-18T00:37:23.348Z,6.96
2023-03-18T00:38:23.339Z,6.88
2023-03-18T00:39:23.360Z,6.89
2023-03-18T00:40:23.333Z,6.82
2023-03-18T00:41:23.332Z,6.92
2023-03-18T00:42:23.323Z,6.85
2023-03-18T00:43:23.315Z,6.93
2023-03-18T00:44:23.331Z,7.03
2023-03-18T00:45:23.292Z,6.97
2023-03-18T00:46:23.381Z,6.99
2023-03-18T00:47:23.291Z,6.96
2023-03-18T00:48:23.276Z,6.89
2023-03-18T00:49:23.313Z,6.89
2023-03-18T00:50:23.262Z,6.92
2023-03-18T00:51:23.278Z,7.00
2023-03-18T00:52:23.253Z,7.06
2023-03-18T00:53:23.230Z,6.93
2023-03-18T00:54:23.257Z,6.95
2023-03-18T00:55:23.213Z,7.02
2023-03-18T00:56:23.215Z,6.99
2023-03-18T00:57:23.198Z,6.99
2023-03-18T00:58:23.206Z,6.93
2023-03-18T00:59:23.187Z,7.05
2023-03-18T01:00:23.216Z,7.00
2023-03-18T01:01:23.234Z,6.96
2023-03-18T01:02:23.195Z,6.95
2023-03-18T01:03:23.158Z,6.95
2023-03-18T01:04:23.151Z,7.07
2023-03-18T01:05:23.171Z,7.00
2023-03-18T01:06:23.140Z,7.02
2023-03-18T01:07:23.128Z,7.02
2023-03-18T01:08:23.119Z,6.99
2023-03-18T01:09:23.124Z,7.06
2023-03-18T01:10:23.128Z,7.02
2023-03-18T01:11:23.093Z,7.06
2023-03-18T01:12:23.089Z,7.14
2023-03-18T01:13:23.082Z,7.11
2023-03-18T01:14:23.090Z,7.10
2023-03-18T01:15:23.090Z,7.11
2023-03-18T01:16:23.097Z,7.14
2023-03-18T01:17:23.055Z,7.17
2023-03-18T01:18:23.046Z,7.14
2023-03-18T01:19:23.292Z,7.17
2023-03-18T01:20:23.052Z,7.02
2023-03-18T01:21:23.024Z,7.15
2023-03-18T01:22:23.015Z,7.18
2023-03-18T01:23:23.002Z,7.15
2023-03-18T01:24:23.003Z,7.20
2023-03-18T01:25:23.013Z,7.25
2023-03-18T01:26:22.990Z,7.13
2023-03-18T01:27:22.979Z,7.20
2023-03-18T01:28:22.997Z,7.24
2023-03-18T01:29:22.962Z,7.21
2023-03-18T01:30:22.977Z,7.18
2023-03-18T01:31:22.979Z,7.15
2023-03-18T01:32:22.940Z,7.13
2023-03-18T01:33:22.927Z,7.14
2023-03-18T01:34:22.928Z,7.13
2023-03-18T01:35:22.973Z,7.24
2023-03-18T01:36:22.908Z,7.24
2023-03-18T01:38:08.020Z,7.31
2023-03-18T01:39:08.052Z,7.18
2023-03-18T01:40:08.056Z,7.33
2023-03-18T01:41:08.027Z,7.35
2023-03-18T01:42:08.014Z,7.20
2023-03-18T01:43:08.017Z,7.23
2023-03-18T01:44:08.001Z,7.29
2023-03-18T01:45:08.027Z,7.15
2023-03-18T01:46:08.063Z,7.32
2023-03-18T01:47:08.038Z,7.28
2023-03-18T01:48:07.981Z,7.28
2023-03-18T01:49:07.981Z,7.31
2023-03-18T01:50:07.981Z,7.17
2023-03-18T01:51:07.962Z,7.20
2023-03-18T01:52:07.948Z,7.31
2023-03-18T01:53:07.959Z,7.31
2023-03-18T01:54:07.932Z,7.40
2023-03-18T01:55:09.077Z,7.28
2023-03-18T01:56:09.061Z,7.31
2023-03-18T01:57:09.043Z,7.33
2023-03-18T01:58:09.030Z,7.23
2023-03-18T01:59:09.026Z,7.38
2023-03-18T02:00:09.047Z,7.32
2023-03-18T02:01:09.034Z,7.23
2023-03-18T02:02:09.006Z,7.25
2023-03-18T02:03:09.010Z,7.36
2023-03-18T02:04:08.992Z,7.35
2023-03-18T02:05:09.001Z,7.31
2023-03-18T02:06:08.972Z,7.35
2023-03-18T02:07:08.961Z,7.32
2023-03-18T02:08:08.961Z,7.36
2023-03-18T02:09:08.953Z,7.35
2023-03-18T02:10:09.785Z,7.36
2023-03-18T02:11:08.933Z,7.40
2023-03-18T02:12:08.936Z,7.42
2023-03-18T02:13:08.922Z,7.40
2023-03-18T02:14:08.913Z,7.45
2023-03-18T02:15:08.937Z,7.50
2023-03-18T02:16:08.897Z,7.42
2023-03-18T02:17:08.880Z,7.43
2023-03-18T02:18:08.877Z,7.56
2023-03-18T02:19:08.871Z,7.63
2023-03-18T02:20:08.902Z,7.58
2023-03-18T02:21:08.865Z,7.66
2023-03-18T02:22:08.852Z,7.63
2023-03-18T02:23:08.843Z,7.60
2023-03-18T02:24:08.825Z,7.58
2023-03-18T02:25:08.857Z,7.60
2023-03-18T02:26:08.821Z,7.57
2023-03-18T02:27:08.808Z,7.60
2023-03-18T02:28:08.801Z,7.66
2023-03-18T02:29:08.796Z,7.72
2023-03-18T02:30:08.810Z,7.66
2023-03-18T02:31:08.855Z,7.75
2023-03-18T02:32:08.782Z,7.76
2023-03-18T02:33:08.923Z,7.76
2023-03-18T02:34:08.762Z,7.79
2023-03-18T02:35:08.787Z,7.73
2023-03-18T02:36:08.754Z,7.79
2023-03-18T02:37:08.740Z,7.80
2023-03-18T02:38:08.729Z,7.77
2023-03-18T02:39:08.724Z,7.87
2023-03-18T02:40:08.747Z,7.88
2023-03-18T02:41:08.700Z,7.80
2023-03-18T02:42:08.693Z,7.94
2023-03-18T02:43:08.687Z,7.88
2023-03-18T02:44:08.679Z,7.90
2023-03-18T02:45:08.710Z,7.88
2023-03-18T02:46:08.676Z,7.87
2023-03-18T02:47:08.660Z,7.91
2023-03-18T02:48:08.656Z,7.98
2023-03-18T02:49:08.638Z,8.06
2023-03-18T02:50:08.635Z,8.06
2023-03-18T02:51:08.652Z,8.08
2023-03-18T02:52:08.626Z,8.12
2023-03-18T02:53:08.611Z,8.05
2023-03-18T02:54:08.614Z,8.18
2023-03-18T02:55:08.602Z,8.13
2023-03-18T02:56:08.627Z,8.08
2023-03-18T02:57:08.588Z,8.10
2023-03-18T02:58:08.582Z,8.24
2023-03-18T02:59:08.574Z,8.23
2023-03-18T03:00:08.564Z,8.24
2023-03-18T03:01:08.621Z,8.26
2023-03-18T03:02:08.587Z,8.26
2023-03-18T03:03:08.725Z,8.24
2023-03-18T03:04:08.542Z,8.30
2023-03-18T03:05:08.538Z,8.12
2023-03-18T03:06:08.560Z,8.19
2023-03-18T03:07:08.518Z,8.23
2023-03-18T03:08:08.520Z,8.16
2023-03-18T03:09:08.503Z,8.16
2023-03-18T03:10:08.485Z,8.16
2023-03-18T03:11:09.512Z,8.20
2023-03-18T03:12:08.483Z,8.26
2023-03-18T03:13:08.487Z,8.28
2023-03-18T03:14:08.482Z,8.19
2023-03-18T03:15:08.468Z,8.26
2023-03-18T03:16:08.511Z,8.24
2023-03-18T03:17:08.452Z,8.18
2023-03-18T03:18:08.434Z,8.28
2023-03-18T03:19:08.433Z,8.13
2023-03-18T03:20:08.422Z,8.20
2023-03-18T03:21:08.440Z,8.09
2023-03-18T03:22:08.421Z,8.06
2023-03-18T03:23:08.401Z,8.15
2023-03-18T03:24:08.403Z,8.10
2023-03-18T03:25:08.387Z,8.08
2023-03-18T03:26:08.400Z,8.06
2023-03-18T03:27:08.375Z,7.93
2023-03-18T03:28:08.364Z,7.91
2023-03-18T03:29:08.353Z,7.95
2023-03-18T03:30:08.358Z,7.91
2023-03-18T03:31:08.382Z,8.01
2023-03-18T03:32:08.338Z,7.95
2023-03-18T03:33:08.364Z,8.06
2023-03-18T03:34:08.319Z,8.05
2023-03-18T03:35:08.316Z,7.98
2023-03-18T03:36:08.367Z,8.01
2023-03-18T03:37:08.303Z,8.08
2023-03-18T03:38:08.286Z,8.09
2023-03-18T03:39:09.293Z,8.15
2023-03-18T03:40:08.267Z,8.12
2023-03-18T03:41:08.305Z,8.20
2023-03-18T03:42:08.266Z,8.18
2023-03-18T03:43:08.252Z,8.26
2023-03-18T03:44:08.255Z,8.28
2023-03-18T03:45:08.241Z,8.31
2023-03-18T03:46:08.306Z,8.31
2023-03-18T03:47:08.232Z,8.38
2023-03-18T03:48:08.213Z,8.41
2023-03-18T03:49:08.209Z,8.51
2023-03-18T03:50:08.210Z,8.48
2023-03-18T03:51:08.326Z,8.41
2023-03-18T03:52:08.190Z,8.53
2023-03-18T03:53:08.179Z,8.56
2023-03-18T03:54:08.169Z,8.58
2023-03-18T03:55:08.163Z,8.52
2023-03-18T03:56:08.183Z,8.55
2023-03-18T03:57:08.148Z,8.56
2023-03-18T03:58:08.149Z,8.64
2023-03-18T03:59:08.132Z,8.49
2023-03-18T04:00:08.123Z,8.56
2023-03-18T04:01:08.138Z,8.53
2023-03-18T04:02:08.108Z,8.51
2023-03-18T04:03:08.099Z,8.46
2023-03-18T04:04:08.150Z,8.51
2023-03-18T04:05:08.081Z,8.61
2023-03-18T04:06:08.121Z,8.60
2023-03-18T04:07:08.070Z,8.49
2023-03-18T04:08:08.060Z,8.53
2023-03-18T04:09:08.049Z,8.64
2023-03-18T04:10:08.042Z,8.55
2023-03-18T04:11:08.081Z,8.46
2023-03-18T04:12:08.029Z,8.46
2023-03-18T04:13:08.022Z,8.42
2023-03-18T04:14:08.014Z,8.45
2023-03-18T04:15:08.010Z,8.27
2023-03-18T04:16:08.074Z,8.34
2023-03-18T04:17:08.016Z,8.15
2023-03-18T04:18:07.980Z,8.16
2023-03-18T04:19:07.971Z,8.09
2023-03-18T04:20:07.963Z,8.01
2023-03-18T04:21:07.957Z,7.93
2023-03-18T04:22:07.979Z,7.95
2023-03-18T04:23:07.963Z,7.82
2023-03-18T04:24:07.941Z,7.88
2023-03-18T04:25:07.942Z,7.83
2023-03-18T04:26:07.920Z,7.83
2023-03-18T04:27:07.940Z,7.87
2023-03-18T04:28:07.904Z,7.93
2023-03-18T04:29:07.899Z,7.85
2023-03-18T04:30:07.894Z,7.90
2023-03-18T04:31:07.966Z,7.85
2023-03-18T04:32:07.895Z,7.85
2023-03-18T04:33:07.964Z,7.93
2023-03-18T04:34:07.862Z,7.87
2023-03-18T04:35:07.865Z,7.90
2023-03-18T04:36:07.857Z,7.88
2023-03-18T04:37:07.868Z,7.87
2023-03-18T04:38:07.826Z,7.85
2023-03-18T04:39:07.810Z,7.80
2023-03-18T04:40:07.812Z,7.80
2023-03-18T04:41:08.804Z,7.80
2023-03-18T04:42:07.822Z,7.79
2023-03-18T04:43:07.790Z,7.83
2023-03-18T04:44:07.795Z,7.80
2023-03-18T04:45:07.776Z,7.88
2023-03-18T04:46:07.765Z,7.79
2023-03-18T04:47:07.795Z,7.88
2023-03-18T04:48:07.764Z,7.88
2023-03-18T04:49:07.760Z,7.88
2023-03-18T04:50:07.739Z,7.87
2023-03-18T04:51:07.746Z,7.83
2023-03-18T04:52:07.746Z,7.90
2023-03-18T04:53:07.723Z,7.79
2023-03-18T04:54:07.707Z,7.79
2023-03-18T04:55:07.696Z,7.79
2023-03-18T04:56:07.690Z,7.80
2023-03-18T04:57:07.701Z,7.80
2023-03-18T04:58:07.677Z,7.87
2023-03-18T04:59:07.668Z,7.82
2023-03-18T05:00:09.661Z,7.87
2023-03-18T05:01:07.688Z,7.88
2023-03-18T05:02:07.669Z,7.88
2023-03-18T05:03:07.638Z,7.91
2023-03-18T05:04:07.685Z,7.87
2023-03-18T05:05:07.658Z,7.93
2023-03-18T05:06:07.613Z,7.95
2023-03-18T05:07:07.639Z,7.93
2023-03-18T05:08:07.619Z,8.00
2023-03-18T05:09:08.590Z,8.09
2023-03-18T05:10:07.590Z,8.08
2023-03-18T05:11:07.577Z,7.97
2023-03-18T05:12:07.593Z,8.05
2023-03-18T05:13:07.560Z,8.03
2023-03-18T05:14:08.555Z,8.10
2023-03-18T05:15:07.546Z,7.97
2023-03-18T05:16:07.557Z,7.90
2023-03-18T05:17:07.560Z,7.87
2023-03-18T05:18:07.555Z,7.87
2023-03-18T05:19:07.523Z,7.80
2023-03-18T05:20:07.515Z,7.76
2023-03-18T05:21:07.518Z,7.77
2023-03-18T05:22:07.516Z,7.72
2023-03-18T05:23:07.479Z,7.69
2023-03-18T05:24:07.479Z,7.67
2023-03-18T05:25:07.473Z,7.57
2023-03-18T05:26:07.461Z,7.60
2023-03-18T05:27:07.538Z,7.50
2023-03-18T05:28:10.138Z,7.58
2023-03-18T05:29:07.449Z,7.50
2023-03-18T05:30:07.443Z,7.53
2023-03-18T05:31:07.440Z,7.47
2023-03-18T05:32:07.490Z,7.48
2023-03-18T05:33:07.457Z,7.33
2023-03-18T05:34:07.418Z,7.36
2023-03-18T05:35:07.386Z,7.42
2023-03-18T05:36:07.417Z,7.43
2023-03-18T05:37:07.400Z,7.47
2023-03-18T05:38:07.362Z,7.47
2023-03-18T05:39:07.359Z,7.47
2023-03-18T05:40:07.351Z,7.45
2023-03-18T05:41:07.355Z,7.42
2023-03-18T05:42:07.360Z,7.57
2023-03-18T05:43:07.330Z,7.53
2023-03-18T05:44:07.339Z,7.45
2023-03-18T05:45:07.312Z,7.39
2023-03-18T05:46:07.383Z,7.32
2023-03-18T05:47:07.339Z,7.25
2023-03-18T05:48:07.311Z,7.20
2023-03-18T05:49:07.279Z,7.21
2023-03-18T05:50:07.269Z,7.17
2023-03-18T05:51:07.262Z,7.31
2023-03-18T05:52:07.299Z,7.28
2023-03-18T05:53:07.247Z,7.21
2023-03-18T05:54:07.239Z,7.18
2023-03-18T05:55:07.232Z,7.17
2023-03-18T05:56:07.223Z,7.31
2023-03-18T05:57:07.218Z,7.40
2023-03-18T05:58:07.239Z,7.56
2023-03-18T05:59:07.200Z,7.48
2023-03-18T06:00:07.188Z,7.57
2023-03-18T06:01:07.195Z,7.58
2023-03-18T06:02:07.201Z,7.67
2023-03-18T06:03:07.298Z,7.69
2023-03-18T06:04:07.160Z,7.75
2023-03-18T06:05:07.155Z,7.80
2023-03-18T06:06:07.147Z,7.77
2023-03-18T06:07:07.143Z,7.83
2023-03-18T06:08:07.306Z,7.90
2023-03-18T06:09:07.118Z,7.87
2023-03-18T06:10:07.116Z,7.94
2023-03-18T06:11:07.114Z,8.01
2023-03-18T06:12:07.099Z,8.05
2023-03-18T06:13:07.118Z,8.00
2023-03-18T06:14:07.098Z,7.98
2023-03-18T06:15:07.076Z,7.91
2023-03-18T06:16:07.070Z,7.98
2023-03-18T06:17:07.065Z,8.08
2023-03-18T06:18:07.079Z,8.09
2023-03-18T06:19:07.049Z,8.08
2023-03-18T06:20:07.041Z,8.13
2023-03-18T06:21:07.052Z,8.09
2023-03-18T06:22:07.026Z,8.12
2023-03-18T06:23:07.040Z,8.24
2023-03-18T06:24:07.006Z,8.27
2023-03-18T06:25:07.005Z,8.26
2023-03-18T06:26:06.994Z,8.46
2023-03-18T06:27:06.984Z,8.36
2023-03-18T06:28:07.005Z,8.38
2023-03-18T06:29:06.977Z,8.42
2023-03-18T06:30:06.963Z,8.48
2023-03-18T06:31:06.993Z,8.58
2023-03-18T06:32:06.947Z,8.66
2023-03-18T06:33:07.089Z,8.71
2023-03-18T06:34:06.934Z,8.82
2023-03-18T06:35:06.926Z,8.76
2023-03-18T06:36:06.952Z,8.88
2023-03-18T06:37:06.918Z,8.97
2023-03-18T06:38:06.934Z,9.03
2023-03-18T06:39:06.886Z,8.95
2023-03-18T06:40:06.883Z,9.18
2023-03-18T06:41:06.874Z,9.28
2023-03-18T06:42:06.870Z,9.28
2023-03-18T06:43:06.901Z,9.36
2023-03-18T06:44:06.841Z,9.47
2023-03-18T06:45:07.836Z,9.43
2023-03-18T06:46:07.933Z,9.82
2023-03-18T06:47:06.828Z,10.89
2023-03-18T06:48:06.844Z,11.78
2023-03-18T06:49:06.813Z,11.88
2023-03-18T06:50:06.803Z,11.52
2023-03-18T06:51:06.801Z,11.11
2023-03-18T06:52:06.783Z,10.99
2023-03-18T06:53:06.805Z,10.51
2023-03-18T06:54:06.770Z,10.20
2023-03-18T06:55:06.785Z,9.97
2023-03-18T06:56:06.756Z,9.86
2023-03-18T06:57:06.770Z,9.73
2023-03-18T06:58:06.765Z,9.66
2023-03-18T06:59:06.735Z,9.73
2023-03-18T07:00:06.744Z,9.89
2023-03-18T07:01:06.809Z,9.84
2023-03-18T07:02:06.708Z,9.87
2023-03-18T07:03:06.735Z,9.94
2023-03-18T07:04:06.747Z,10.04
2023-03-18T07:05:06.686Z,10.12
2023-03-18T07:06:06.674Z,10.33
2023-03-18T07:07:06.666Z,10.49
2023-03-18T07:08:06.714Z,10.61
2023-03-18T07:09:06.652Z,10.76
2023-03-18T07:10:06.639Z,10.89
2023-03-18T07:11:06.631Z,10.96
2023-03-18T07:12:06.625Z,11.07
2023-03-18T07:13:06.645Z,11.14
2023-03-18T07:14:06.608Z,12.02
2023-03-18T07:15:06.600Z,13.27
2023-03-18T07:16:06.642Z,14.48
2023-03-18T07:17:06.600Z,15.31
2023-03-18T07:18:06.621Z,15.21
2023-03-18T07:19:06.565Z,14.79
2023-03-18T07:20:06.560Z,14.05
2023-03-18T07:21:06.548Z,13.47
2023-03-18T07:22:06.544Z,12.98
2023-03-18T07:23:06.559Z,12.75
2023-03-18T07:24:06.523Z,12.54
2023-03-18T07:25:06.520Z,12.54
2023-03-18T07:26:06.507Z,12.53
2023-03-18T07:27:06.498Z,12.79
2023-03-18T07:28:06.518Z,12.80
2023-03-18T07:29:06.488Z,12.67
2023-03-18T07:30:06.492Z,12.62
2023-03-18T07:31:06.488Z,12.47
2023-03-18T07:32:06.466Z,12.43
2023-03-18T07:33:06.568Z,12.57
2023-03-18T07:34:06.446Z,13.30
2023-03-18T07:35:06.458Z,13.12
2023-03-18T07:36:06.487Z,13.59
2023-03-18T07:37:06.422Z,13.99
2023-03-18T07:38:06.441Z,14.15
2023-03-18T07:39:06.420Z,13.86
2023-03-18T07:40:06.403Z,13.89
2023-03-18T07:41:06.394Z,13.54
2023-03-18T07:42:06.388Z,13.54
2023-03-18T07:43:06.379Z,13.70
2023-03-18T07:44:06.396Z,13.85
2023-03-18T07:45:06.356Z,14.58
2023-03-18T07:46:06.397Z,14.91
2023-03-18T07:47:06.347Z,15.73
2023-03-18T07:48:06.395Z,16.68
2023-03-18T07:49:06.357Z,17.56
2023-03-18T07:50:06.331Z,17.87
2023-03-18T07:51:06.312Z,18.08
2023-03-18T07:52:06.302Z,18.00
2023-03-18T07:53:07.297Z,17.74
2023-03-18T07:54:06.316Z,17.70
2023-03-18T07:55:06.295Z,17.86
2023-03-18T07:56:06.278Z,18.08
2023-03-18T07:57:06.290Z,18.10
2023-03-18T07:58:06.264Z,18.71
2023-03-18T07:59:06.281Z,18.81
2023-03-18T08:00:06.254Z,19.07
2023-03-18T08:01:06.241Z,19.47
2023-03-18T08:02:06.233Z,19.73
2023-03-18T08:03:06.230Z,19.26
2023-03-18T08:04:06.320Z,19.31
2023-03-18T08:05:06.252Z,19.00
2023-03-18T08:06:06.209Z,19.02
2023-03-18T08:07:06.195Z,19.12
2023-03-18T08:08:06.186Z,18.81
2023-03-18T08:09:06.206Z,18.71
2023-03-18T08:10:06.172Z,18.66
2023-03-18T08:11:06.165Z,18.60
2023-03-18T08:12:06.160Z,18.81
2023-03-18T08:13:06.155Z,19.04
2023-03-18T08:14:06.167Z,19.34
2023-03-18T08:15:06.136Z,19.51
2023-03-18T08:16:06.153Z,19.52
2023-03-18T08:17:06.116Z,19.29
2023-03-18T08:18:09.120Z,19.41
2023-03-18T08:19:07.132Z,19.00
2023-03-18T08:20:06.099Z,19.14
2023-03-18T08:21:06.109Z,19.19
2023-03-18T08:22:06.085Z,19.12
2023-03-18T08:23:06.078Z,19.11
2023-03-18T08:24:06.093Z,19.02
2023-03-18T08:25:06.058Z,19.36
2023-03-18T08:26:06.053Z,19.55
2023-03-18T08:27:06.043Z,19.51
2023-03-18T08:28:06.036Z,19.45
2023-03-18T08:29:06.059Z,19.09
2023-03-18T08:30:06.035Z,19.15
2023-03-18T08:31:06.035Z,19.30
2023-03-18T08:32:06.008Z,19.33
2023-03-18T08:33:06.059Z,19.48
2023-03-18T08:34:06.016Z,18.86
2023-03-18T08:35:05.985Z,18.83
2023-03-18T08:36:05.996Z,18.75
2023-03-18T08:37:05.975Z,18.70
2023-03-18T08:38:05.963Z,18.84
2023-03-18T08:39:05.998Z,18.88
2023-03-18T08:40:05.952Z,18.89
2023-03-18T08:41:05.948Z,19.07
2023-03-18T08:42:05.933Z,18.99
2023-03-18T08:43:05.922Z,19.34
2023-03-18T08:44:05.943Z,19.44
2023-03-18T08:45:05.918Z,19.63
2023-03-18T08:46:06.047Z,19.49
2023-03-18T08:47:05.900Z,19.52
2023-03-18T08:48:05.895Z,19.49
2023-03-18T08:49:05.920Z,19.09
2023-03-18T08:50:05.900Z,18.77
2023-03-18T08:51:05.866Z,18.66
2023-03-18T08:52:05.871Z,18.74
2023-03-18T08:53:05.877Z,18.96
2023-03-18T08:54:05.873Z,19.45
2023-03-18T08:55:05.837Z,19.56
2023-03-18T08:56:05.833Z,19.33
2023-03-18T08:57:05.827Z,19.30
2023-03-18T08:58:05.836Z,19.47
2023-03-18T08:59:05.835Z,19.18
2023-03-18T09:00:05.819Z,18.73
2023-03-18T09:01:05.811Z,18.65
2023-03-18T09:02:05.800Z,18.66
2023-03-18T09:03:05.825Z,18.50
2023-03-18T09:04:05.798Z,18.44
2023-03-18T09:05:05.780Z,18.49
2023-03-18T09:06:05.762Z,18.70
2023-03-18T09:07:05.758Z,18.77
2023-03-18T09:08:05.750Z,19.09
2023-03-18T09:09:05.773Z,19.31
2023-03-18T09:10:05.734Z,19.52
2023-03-18T09:11:05.724Z,19.15
2023-03-18T09:12:05.739Z,18.98
2023-03-18T09:13:05.712Z,18.93
2023-03-18T09:14:05.726Z,18.92
2023-03-18T09:15:05.693Z,19.00
2023-03-18T09:16:05.688Z,19.27
2023-03-18T09:17:05.702Z,19.49
2023-03-18T09:18:11.361Z,19.49
2023-03-18T09:19:07.717Z,19.39
2023-03-18T09:20:05.678Z,19.15
2023-03-18T09:21:05.701Z,19.09
2023-03-18T09:22:05.640Z,18.86
2023-03-18T09:23:05.624Z,18.89
2023-03-18T09:24:07.556Z,19.07
2023-03-18T09:25:06.621Z,19.16
2023-03-18T09:26:05.610Z,19.56
2023-03-18T09:27:05.619Z,19.39
2023-03-18T09:28:05.599Z,19.41
2023-03-18T09:29:05.609Z,18.74
2023-03-18T09:30:06.912Z,18.93
2023-03-18T09:31:06.629Z,19.11
2023-03-18T09:32:05.585Z,19.12
2023-03-18T09:33:05.630Z,18.88
2023-03-18T09:34:05.593Z,19.04
2023-03-18T09:35:05.568Z,18.98
2023-03-18T09:36:05.611Z,18.93
2023-03-18T09:37:05.534Z,19.02
2023-03-18T09:38:05.578Z,18.90
2023-03-18T09:39:05.574Z,18.86
2023-03-18T09:40:05.509Z,18.83
2023-03-18T09:41:05.513Z,18.63
2023-03-18T09:42:05.495Z,18.83
2023-03-18T09:43:05.494Z,18.74
2023-03-18T09:44:05.499Z,18.78
2023-03-18T09:45:05.470Z,18.99
2023-03-18T09:46:05.616Z,19.19
2023-03-18T09:47:05.578Z,18.99
2023-03-18T09:48:05.448Z,18.80
2023-03-18T09:49:05.472Z,18.95
2023-03-18T09:50:05.437Z,19.09
2023-03-18T09:51:05.426Z,19.15
2023-03-18T09:52:05.416Z,18.86
2023-03-18T09:53:05.411Z,18.75
2023-03-18T09:54:05.428Z,18.93
2023-03-18T09:55:05.410Z,19.07
2023-03-18T09:56:05.389Z,19.11
2023-03-18T09:57:05.379Z,19.11
2023-03-18T09:58:05.382Z,19.02
2023-03-18T09:59:05.389Z,18.83
2023-03-18T10:00:05.354Z,18.81
2023-03-18T10:01:05.376Z,18.52
2023-03-18T10:02:05.348Z,18.62
2023-03-18T10:03:06.556Z,18.52
2023-03-18T10:04:06.416Z,18.55
2023-03-18T10:05:05.326Z,18.68
2023-03-18T10:06:05.329Z,18.80
2023-03-18T10:07:05.312Z,18.77
2023-03-18T10:08:05.293Z,18.86
2023-03-18T10:09:05.330Z,18.89
2023-03-18T10:10:05.286Z,18.99
2023-03-18T10:11:05.283Z,18.99
2023-03-18T10:12:05.262Z,18.84
2023-03-18T10:13:05.265Z,18.84
2023-03-18T10:14:05.258Z,18.75
2023-03-18T10:15:05.280Z,18.65
2023-03-18T10:16:05.290Z,18.70
2023-03-18T10:17:05.224Z,18.52
2023-03-18T10:18:05.215Z,18.31
2023-03-18T10:19:05.224Z,18.22
2023-03-18T10:20:05.247Z,18.22
2023-03-18T10:21:05.202Z,18.11
2023-03-18T10:22:05.186Z,18.33
2023-03-18T10:23:05.181Z,18.18
2023-03-18T10:24:05.170Z,18.18
2023-03-18T10:25:05.196Z,18.13
2023-03-18T10:26:05.172Z,18.22
2023-03-18T10:27:05.154Z,18.11
2023-03-18T10:28:05.165Z,18.11
2023-03-18T10:29:05.143Z,18.19
2023-03-18T10:30:05.161Z,18.20
2023-03-18T10:31:05.151Z,18.15
2023-03-18T10:32:05.125Z,18.22
2023-03-18T10:33:05.145Z,18.29
2023-03-18T10:34:05.100Z,18.40
2023-03-18T10:35:05.129Z,18.43
2023-03-18T10:36:05.136Z,18.50
2023-03-18T10:37:05.082Z,18.60
2023-03-18T10:38:05.078Z,18.55
2023-03-18T10:39:05.061Z,18.53
2023-03-18T10:40:05.082Z,18.52
2023-03-18T10:41:05.055Z,18.62
2023-03-18T10:42:05.052Z,18.78
2023-03-18T10:43:05.046Z,18.81
2023-03-18T10:44:05.026Z,18.68
2023-03-18T10:45:05.050Z,18.78
2023-03-18T10:46:05.061Z,18.74
2023-03-18T10:47:05.052Z,18.71
2023-03-18T10:48:06.162Z,18.80
2023-03-18T10:49:05.991Z,18.71
2023-03-18T10:50:05.007Z,18.78
2023-03-18T10:51:04.978Z,18.77
2023-03-18T10:52:04.971Z,18.78
2023-03-18T10:53:04.957Z,18.80
2023-03-18T10:54:04.954Z,18.92
2023-03-18T10:55:04.978Z,19.11
2023-03-18T10:56:04.939Z,19.04
2023-03-18T10:57:04.933Z,19.14
2023-03-18T10:58:04.928Z,19.16
2023-03-18T10:59:04.919Z,19.19
2023-03-18T11:00:04.932Z,19.18
2023-03-18T11:01:04.900Z,19.36
2023-03-18T11:02:05.024Z,19.34
2023-03-18T11:03:04.923Z,19.19
2023-03-18T11:04:04.880Z,19.22
2023-03-18T11:05:04.912Z,19.49
2023-03-18T11:06:04.866Z,19.64
2023-03-18T11:07:04.859Z,19.76
2023-03-18T11:08:04.867Z,19.82
2023-03-18T11:09:04.844Z,19.91
2023-03-18T11:10:04.862Z,19.92
2023-03-18T11:11:04.822Z,20.06
2023-03-18T11:12:04.841Z,20.16
2023-03-18T11:13:04.819Z,20.26
2023-03-18T11:14:04.821Z,20.24
2023-03-18T11:15:04.924Z,20.24
2023-03-18T11:16:04.888Z,20.24
2023-03-18T11:17:04.799Z,20.09
2023-03-18T11:18:04.771Z,19.99
2023-03-18T11:19:04.762Z,19.89
2023-03-18T11:20:04.775Z,19.70
2023-03-18T11:21:04.800Z,19.88
2023-03-18T11:22:04.732Z,19.92
2023-03-18T11:23:04.728Z,20.09
2023-03-18T11:24:04.719Z,20.02
2023-03-18T11:25:04.744Z,20.11
2023-03-18T11:26:04.707Z,20.06
2023-03-18T11:27:04.697Z,20.25
2023-03-18T11:28:04.693Z,20.21
2023-03-18T11:29:04.688Z,20.34
2023-03-18T11:30:04.702Z,20.29
2023-03-18T11:31:04.709Z,20.28
2023-03-18T11:32:04.668Z,20.24
2023-03-18T11:33:04.725Z,20.06
2023-03-18T11:34:04.653Z,20.03
2023-03-18T11:35:04.668Z,20.16
2023-03-18T11:36:04.644Z,20.09
2023-03-18T11:37:04.890Z,20.02
2023-03-18T11:38:04.613Z,19.96
2023-03-18T11:39:04.603Z,20.06
2023-03-18T11:40:04.625Z,20.06
2023-03-18T11:41:04.593Z,20.16
2023-03-18T11:42:04.592Z,20.34
2023-03-18T11:43:04.568Z,20.40
2023-03-18T11:44:04.567Z,20.41
2023-03-18T11:45:04.587Z,20.41
2023-03-18T11:46:04.554Z,20.34
2023-03-18T11:47:04.591Z,20.14
2023-03-18T11:48:04.529Z,20.02
2023-03-18T11:49:04.519Z,19.91
2023-03-18T11:50:04.515Z,20.03
2023-03-18T11:51:04.532Z,19.96
2023-03-18T11:52:04.503Z,20.24
2023-03-18T11:53:04.499Z,20.02
2023-03-18T11:54:04.519Z,19.94
2023-03-18T11:55:04.483Z,19.85
2023-03-18T11:56:04.496Z,19.69
2023-03-18T11:57:04.463Z,19.55
2023-03-18T11:58:04.455Z,19.55
2023-03-18T11:59:04.442Z,19.44
2023-03-18T12:00:04.438Z,19.54
2023-03-18T12:01:04.461Z,19.59
2023-03-18T12:02:04.457Z,19.63
2023-03-18T12:03:04.408Z,19.63
2023-03-18T12:04:05.405Z,19.63
2023-03-18T12:05:04.440Z,19.76
2023-03-18T12:06:04.423Z,19.84
2023-03-18T12:07:04.388Z,20.06
2023-03-18T12:08:04.384Z,20.14
2023-03-18T12:09:04.380Z,20.32
2023-03-18T12:10:04.366Z,20.26
2023-03-18T12:11:04.386Z,20.22
2023-03-18T12:12:04.350Z,20.29
2023-03-18T12:13:04.336Z,20.43
2023-03-18T12:14:04.341Z,20.58
2023-03-18T12:15:04.331Z,20.62
2023-03-18T12:16:04.383Z,20.74
2023-03-18T12:17:04.311Z,20.78
2023-03-18T12:18:04.302Z,20.66
2023-03-18T12:19:04.299Z,20.58
2023-03-18T12:20:04.302Z,20.51
2023-03-18T12:21:04.479Z,20.58
2023-03-18T12:22:04.280Z,20.55
2023-03-18T12:23:04.268Z,20.59
2023-03-18T12:24:04.273Z,20.52
2023-03-18T12:25:04.258Z,20.48
2023-03-18T12:26:04.261Z,20.39
2023-03-18T12:27:04.234Z,20.26
2023-03-18T12:28:04.265Z,20.21
2023-03-18T12:29:04.223Z,19.96
2023-03-18T12:30:04.221Z,19.79
2023-03-18T12:31:04.225Z,19.62
2023-03-18T12:32:04.225Z,19.55
2023-03-18T12:33:04.261Z,19.84
2023-03-18T12:34:04.186Z,19.86
2023-03-18T12:35:04.167Z,19.94
2023-03-18T12:36:04.236Z,19.91
2023-03-18T12:37:04.154Z,19.82
2023-03-18T12:38:04.146Z,19.89
2023-03-18T12:39:04.159Z,19.99
2023-03-18T12:40:04.138Z,19.88
2023-03-18T12:41:04.151Z,19.76
2023-03-18T12:42:04.117Z,19.70
2023-03-18T12:43:04.117Z,19.81
2023-03-18T12:44:04.103Z,19.70
2023-03-18T12:45:04.102Z,19.64
2023-03-18T12:46:04.163Z,19.64
2023-03-18T12:47:04.083Z,19.63
2023-03-18T12:48:04.073Z,19.48
2023-03-18T12:49:04.063Z,19.37
2023-03-18T12:50:04.061Z,19.55
2023-03-18T12:51:04.083Z,19.62
2023-03-18T12:52:04.046Z,19.56
2023-03-18T12:53:04.038Z,19.59
2023-03-18T12:54:04.026Z,19.76
2023-03-18T12:55:04.031Z,19.73
2023-03-18T12:56:04.060Z,19.62
2023-03-18T12:57:04.006Z,19.59
2023-03-18T12:58:04.009Z,19.41
2023-03-18T12:59:04.000Z,19.33
2023-03-18T13:00:04.007Z,19.09
2023-03-18T13:01:04.070Z,19.02
2023-03-18T13:02:04.132Z,19.16
2023-03-18T13:03:06.899Z,19.19
2023-03-18T13:04:03.955Z,19.19
2023-03-18T13:05:03.946Z,19.22
2023-03-18T13:06:03.935Z,19.36
2023-03-18T13:07:03.960Z,19.52